Time;durP1;ratioP1;P1;durP2;ratioP2;P2;SDS_P1;SDS_P2;PMS_P1;PMS_P2;Temp;Humidity;BMP_temperature;BMP_pressure;BME280_temperature;BME280_humidity;BME280_pressure;Samples;Min_cycle;Max_cycle;Signal;HPM_P1;HPM_P2
2022/01/11 00:00:24;;;;;;;101.50;25.92;;;-0.20;99.90;;;;;;5060728;28;20025;-37
2022/01/11 00:02:52;;;;;;;74.95;23.98;;;-0.20;99.90;;;;;;5058939;28;20025;-37
2022/01/11 00:07:55;;;;;;;57.95;24.65;;;-0.20;99.90;;;;;;5056396;28;20125;-37
2022/01/11 00:10:27;;;;;;;47.28;22.55;;;-0.30;99.90;;;;;;5052575;28;20049;-37
2022/01/11 00:12:54;;;;;;;60.05;24.77;;;-0.30;99.90;;;;;;5059134;28;20029;-38
2022/01/11 00:15:20;;;;;;;52.58;23.02;;;-0.30;99.90;;;;;;5059571;28;20393;-37
2022/01/11 00:17:46;;;;;;;62.75;21.90;;;-0.30;99.90;;;;;;5064282;28;20043;-37
2022/01/11 00:20:15;;;;;;;66.20;24.65;;;-0.30;99.90;;;;;;5061727;28;20025;-37
2022/01/11 00:25:26;;;;;;;80.78;24.35;;;-0.40;99.90;;;;;;5060939;28;20064;-38
2022/01/11 00:27:52;;;;;;;87.88;26.00;;;-0.40;99.90;;;;;;5061604;28;20063;-37
2022/01/11 00:30:18;;;;;;;78.45;24.33;;;-0.50;99.90;;;;;;5061914;28;20041;-37
2022/01/11 00:32:49;;;;;;;98.50;24.85;;;-0.50;99.90;;;;;;5063325;28;20083;-37
2022/01/11 00:35:17;;;;;;;51.47;22.65;;;-0.50;99.90;;;;;;5050972;28;20101;-37
2022/01/11 00:37:45;;;;;;;70.45;22.83;;;-0.40;99.90;;;;;;5061910;28;20032;-38
2022/01/11 00:40:12;;;;;;;73.75;22.45;;;-0.50;99.90;;;;;;5058387;28;20056;-37
2022/01/11 00:42:38;;;;;;;69.38;25.23;;;-0.50;99.90;;;;;;5060553;28;20035;-37
2022/01/11 00:45:06;;;;;;;49.83;23.58;;;-0.50;99.90;;;;;;5061676;28;20028;-38
2022/01/11 00:47:31;;;;;;;51.72;23.73;;;-0.50;99.90;;;;;;5043942;28;20037;-43
2022/01/11 00:49:57;;;;;;;86.72;25.98;;;-0.50;99.90;;;;;;5060019;28;20047;-37
2022/01/11 00:52:23;;;;;;;78.72;25.20;;;-0.50;99.90;;;;;;5059723;28;20556;-37
2022/01/11 00:54:49;;;;;;;64.47;24.52;;;-0.50;99.90;;;;;;5061304;28;20029;-37
2022/01/11 00:57:14;;;;;;;56.80;24.73;;;-0.50;99.90;;;;;;5059842;28;20041;-37
2022/01/11 00:59:40;;;;;;;69.82;25.35;;;-0.50;99.90;;;;;;5062881;28;20374;-37
2022/01/11 01:02:06;;;;;;;46.88;24.90;;;-0.50;99.90;;;;;;5057622;28;20047;-37
2022/01/11 01:04:32;;;;;;;57.30;25.65;;;-0.50;99.90;;;;;;5061263;28;20017;-37
2022/01/11 01:06:58;;;;;;;48.58;23.92;;;-0.50;99.90;;;;;;5061766;28;20032;-39
2022/01/11 01:09:28;;;;;;;52.50;24.40;;;-0.50;99.90;;;;;;5060044;28;20119;-37
2022/01/11 01:11:54;;;;;;;56.78;23.80;;;-0.50;99.90;;;;;;5060814;28;20407;-37
2022/01/11 01:14:21;;;;;;;59.53;25.50;;;-0.50;99.90;;;;;;5060878;28;20025;-37
2022/01/11 01:16:47;;;;;;;53.95;24.98;;;-0.60;99.90;;;;;;5061782;28;20430;-38
2022/01/11 01:19:13;;;;;;;67.10;26.60;;;-0.60;99.90;;;;;;5040229;28;20025;-37
2022/01/11 01:21:39;;;;;;;48.40;24.58;;;-0.60;99.90;;;;;;5058617;28;20026;-41
2022/01/11 01:24:09;;;;;;;56.03;24.77;;;-0.60;99.90;;;;;;5060219;28;20025;-37
2022/01/11 01:26:35;;;;;;;37.88;22.92;;;-0.70;99.90;;;;;;5050802;28;20388;-37
2022/01/11 01:29:01;;;;;;;40.88;22.70;;;-0.70;99.90;;;;;;5060769;28;20112;-38
2022/01/11 01:31:28;;;;;;;43.20;23.45;;;-0.70;99.90;;;;;;5059736;28;20488;-37
2022/01/11 01:33:55;;;;;;;41.20;23.08;;;-0.70;99.90;;;;;;5059349;28;20025;-40
2022/01/11 01:36:21;;;;;;;47.47;25.08;;;-0.70;99.90;;;;;;5058550;28;20629;-37
2022/01/11 01:38:47;;;;;;;41.80;23.02;;;-0.70;99.90;;;;;;5040533;28;20028;-39
2022/01/11 01:41:16;;;;;;;63.88;24.48;;;-0.70;99.90;;;;;;5059553;28;20036;-36
2022/01/11 01:43:43;;;;;;;54.92;25.50;;;-0.70;99.90;;;;;;5056090;28;20119;-37
2022/01/11 01:46:09;;;;;;;51.88;23.55;;;-0.70;99.90;;;;;;5059411;28;20089;-37
2022/01/11 01:48:38;;;;;;;56.88;25.73;;;-0.60;99.90;;;;;;5058447;28;20025;-38
2022/01/11 01:51:06;;;;;;;59.42;23.92;;;-0.60;99.90;;;;;;5058259;28;20049;-37
2022/01/11 01:53:34;;;;;;;79.68;25.70;;;-0.60;99.90;;;;;;5054165;28;20112;-37
2022/01/11 01:56:00;;;;;;;54.05;22.70;;;-0.60;99.90;;;;;;5059867;28;20053;-37
2022/01/11 01:58:26;;;;;;;62.50;25.52;;;-0.60;99.90;;;;;;5039940;28;20032;-36
2022/01/11 02:00:55;;;;;;;66.10;25.40;;;-0.60;99.90;;;;;;5023519;28;20032;-38
2022/01/11 02:03:29;;;;;;;67.60;25.08;;;-0.60;99.90;;;;;;5057470;28;20033;-37
2022/01/11 02:05:56;;;;;;;83.85;25.90;;;-0.60;99.90;;;;;;5059175;28;20049;-37
2022/01/11 02:08:23;;;;;;;101.47;26.52;;;-0.70;99.90;;;;;;5041569;28;21525;-36
2022/01/11 02:10:49;;;;;;;84.55;27.20;;;-0.70;99.90;;;;;;5057913;28;20049;-37
2022/01/11 02:13:15;;;;;;;124.60;28.90;;;-0.70;99.90;;;;;;5039518;28;20036;-36
2022/01/11 02:15:41;;;;;;;115.05;27.70;;;-0.70;99.90;;;;;;5058979;28;20505;-37
2022/01/11 02:18:22;;;;;;;86.97;25.40;;;-0.70;99.90;;;;;;5059699;28;20025;-38
2022/01/11 02:20:49;;;;;;;77.03;24.90;;;-0.60;99.90;;;;;;5041009;28;20021;-37
2022/01/11 02:23:17;;;;;;;70.70;25.35;;;-0.60;99.90;;;;;;5056401;28;20303;-37
2022/01/11 02:25:44;;;;;;;73.78;25.33;;;-0.60;99.90;;;;;;5060110;28;20020;-37
2022/01/11 02:28:14;;;;;;;106.22;26.63;;;-0.60;99.90;;;;;;5057426;28;20029;-36
2022/01/11 02:30:40;;;;;;;107.75;27.30;;;-0.60;99.90;;;;;;5039778;28;20032;-37
2022/01/11 02:33:13;;;;;;;140.90;32.00;;;-0.60;99.90;;;;;;5059262;28;20117;-37
2022/01/11 02:35:39;;;;;;;91.82;26.90;;;-0.60;99.90;;;;;;5057194;28;20036;-37
2022/01/11 02:38:04;;;;;;;56.67;24.80;;;-0.60;99.90;;;;;;5060078;28;20040;-37
2022/01/11 02:40:30;;;;;;;89.85;27.10;;;-0.70;99.90;;;;;;5058900;28;20045;-37
2022/01/11 02:42:55;;;;;;;79.80;27.08;;;-0.70;99.90;;;;;;5056723;28;20040;-36
2022/01/11 02:45:22;;;;;;;99.22;28.67;;;-0.70;99.90;;;;;;5038543;28;20096;-36
2022/01/11 02:47:48;;;;;;;116.15;29.83;;;-0.70;99.90;;;;;;5050729;28;20025;-36
2022/01/11 02:50:16;;;;;;;109.95;32.47;;;-0.70;99.90;;;;;;5057186;28;20404;-36
2022/01/11 02:52:41;;;;;;;96.43;31.20;;;-0.60;99.90;;;;;;5056181;28;20318;-36
2022/01/11 02:55:10;;;;;;;131.63;30.50;;;-0.60;99.90;;;;;;5058281;28;20044;-36
2022/01/11 02:57:37;;;;;;;118.85;31.58;;;-0.60;99.90;;;;;;5059432;28;20435;-36
2022/01/11 03:00:08;;;;;;;117.68;29.35;;;-0.60;99.90;;;;;;5058353;28;20026;-36
2022/01/11 03:02:34;;;;;;;110.10;29.63;;;-0.60;99.90;;;;;;5059679;28;20025;-36
2022/01/11 03:04:59;;;;;;;127.60;31.20;;;-0.50;99.90;;;;;;5042058;28;20039;-36
2022/01/11 03:07:25;;;;;;;85.38;27.63;;;-0.50;99.90;;;;;;5060112;28;20238;-36
2022/01/11 03:10:02;;;;;;;93.40;30.17;;;-0.50;99.90;;;;;;5056007;28;20036;-37
2022/01/11 03:12:29;;;;;;;113.20;32.33;;;-0.40;99.90;;;;;;5058104;28;20060;-37
2022/01/11 03:14:55;;;;;;;77.53;28.48;;;-0.40;99.90;;;;;;5038364;28;20096;-37
2022/01/11 03:17:21;;;;;;;114.68;30.05;;;-0.40;99.90;;;;;;5058475;28;20048;-37
2022/01/11 03:19:47;;;;;;;101.78;28.42;;;-0.40;99.90;;;;;;5041368;28;20087;-36
2022/01/11 03:22:13;;;;;;;112.70;28.38;;;-0.30;99.90;;;;;;5055521;28;20029;-37
2022/01/11 03:24:38;;;;;;;95.38;28.50;;;-0.40;99.90;;;;;;5059789;28;20093;-36
2022/01/11 03:27:06;;;;;;;79.65;26.70;;;-0.30;99.90;;;;;;5056855;28;20079;-37
2022/01/11 03:29:34;;;;;;;69.55;27.02;;;-0.30;99.90;;;;;;5058593;28;20075;-37
2022/01/11 03:32:00;;;;;;;78.00;27.80;;;-0.30;99.90;;;;;;5056221;28;20040;-37
2022/01/11 03:34:25;;;;;;;77.90;28.05;;;-0.30;99.90;;;;;;5043716;28;20465;-37
2022/01/11 03:36:51;;;;;;;84.60;28.40;;;-0.30;99.90;;;;;;5038839;28;20064;-36
2022/01/11 03:39:17;;;;;;;61.28;26.38;;;-0.30;99.90;;;;;;5055830;28;20340;-38
2022/01/11 03:41:43;;;;;;;58.88;26.38;;;-0.30;99.90;;;;;;5057938;28;20034;-38
2022/01/11 03:44:08;;;;;;;58.20;26.40;;;-0.30;99.90;;;;;;5054937;28;20059;-37
2022/01/11 03:46:34;;;;;;;57.70;25.77;;;-0.30;99.90;;;;;;5053841;28;20067;-37
2022/01/11 03:49:00;;;;;;;58.15;26.38;;;-0.30;99.90;;;;;;5043533;28;20067;-40
2022/01/11 03:51:26;;;;;;;76.13;25.70;;;-0.30;99.90;;;;;;5058829;28;20021;-37
2022/01/11 03:54:07;;;;;;;58.13;26.60;;;-0.30;99.90;;;;;;5059863;28;20074;-36
2022/01/11 03:56:33;;;;;;;63.97;24.63;;;-0.30;99.90;;;;;;5035967;28;20079;-37
2022/01/11 03:59:01;;;;;;;63.67;26.58;;;-0.30;99.90;;;;;;5059537;28;20451;-39
2022/01/11 04:01:27;;;;;;;77.82;27.15;;;-0.30;99.90;;;;;;5057957;28;20038;-37
2022/01/11 04:03:53;;;;;;;58.60;27.48;;;-0.30;99.90;;;;;;5062131;28;20033;-37
2022/01/11 04:06:19;;;;;;;68.38;26.65;;;-0.30;99.90;;;;;;5042256;28;20029;-41
2022/01/11 04:08:46;;;;;;;56.50;26.35;;;-0.30;99.90;;;;;;5062107;28;20032;-37
2022/01/11 04:11:11;;;;;;;66.70;26.67;;;-0.30;99.90;;;;;;5061267;28;20051;-37
2022/01/11 04:13:38;;;;;;;58.05;26.95;;;-0.30;99.90;;;;;;5060226;28;20025;-38
2022/01/11 04:16:05;;;;;;;70.22;30.00;;;-0.30;99.90;;;;;;5058426;28;20033;-42
2022/01/11 04:18:30;;;;;;;60.33;26.63;;;-0.20;99.90;;;;;;5058940;28;20037;-39
2022/01/11 04:20:56;;;;;;;69.22;29.73;;;-0.20;99.90;;;;;;5043684;28;20033;-39
2022/01/11 04:23:23;;;;;;;72.28;32.53;;;-0.20;99.90;;;;;;5057924;28;20420;-37
2022/01/11 04:25:49;;;;;;;72.45;31.30;;;-0.20;99.90;;;;;;5056387;28;20110;-39
2022/01/11 04:28:15;;;;;;;69.55;30.10;;;-0.20;99.90;;;;;;5061231;28;20032;-47
2022/01/11 04:30:40;;;;;;;74.30;30.33;;;-0.20;99.90;;;;;;5057024;28;20069;-39
2022/01/11 04:33:06;;;;;;;65.15;30.05;;;-0.20;99.90;;;;;;5043007;28;20048;-37
2022/01/11 04:35:32;;;;;;;67.03;29.63;;;-0.20;99.90;;;;;;5028348;28;20029;-37
2022/01/11 04:37:58;;;;;;;79.15;32.67;;;-0.20;99.90;;;;;;5063481;28;20051;-37
2022/01/11 04:40:24;;;;;;;65.07;30.70;;;-0.20;99.90;;;;;;5060341;28;20061;-36
2022/01/11 04:42:50;;;;;;;61.53;29.23;;;-0.20;99.90;;;;;;5060889;28;20051;-36
2022/01/11 04:45:16;;;;;;;63.20;30.08;;;-0.20;99.90;;;;;;5055867;28;20487;-36
2022/01/11 04:47:45;;;;;;;69.25;29.70;;;-0.20;99.90;;;;;;5060707;28;20029;-36
2022/01/11 04:50:11;;;;;;;67.35;30.55;;;-0.30;99.90;;;;;;5061429;28;20039;-36
2022/01/11 04:52:38;;;;;;;58.40;29.65;;;-0.30;99.90;;;;;;5059137;28;20017;-36
2022/01/11 04:55:06;;;;;;;61.92;30.23;;;-0.20;99.90;;;;;;5060734;28;20041;-36
2022/01/11 04:57:32;;;;;;;69.22;31.20;;;-0.30;99.90;;;;;;5058536;28;20524;-37
2022/01/11 04:59:57;;;;;;;70.70;30.10;;;-0.30;99.90;;;;;;5058349;28;20049;-37
2022/01/11 05:02:25;;;;;;;66.38;30.10;;;-0.30;99.90;;;;;;5054097;28;20403;-36
2022/01/11 05:04:51;;;;;;;64.95;29.83;;;-0.30;99.90;;;;;;5056407;28;20045;-37
2022/01/11 05:07:16;;;;;;;68.55;31.17;;;-0.30;99.90;;;;;;5057966;28;20029;-37
2022/01/11 05:09:42;;;;;;;65.57;30.92;;;-0.30;99.90;;;;;;5059279;28;20049;-36
2022/01/11 05:12:09;;;;;;;68.80;30.73;;;-0.30;99.90;;;;;;5061813;28;20036;-38
2022/01/11 05:14:34;;;;;;;73.10;31.00;;;-0.30;99.90;;;;;;5059158;28;20047;-37
2022/01/11 05:17:00;;;;;;;63.75;28.67;;;-0.30;99.90;;;;;;5059652;28;20029;-37
2022/01/11 05:19:25;;;;;;;66.47;30.30;;;-0.30;99.90;;;;;;5057993;28;20032;-37
2022/01/11 05:21:51;;;;;;;71.43;30.30;;;-0.30;99.90;;;;;;5057536;28;20454;-37
2022/01/11 05:24:17;;;;;;;60.90;30.17;;;-0.30;99.90;;;;;;5059032;28;20025;-36
2022/01/11 05:26:43;;;;;;;65.70;29.67;;;-0.30;99.90;;;;;;5059072;28;20033;-37
2022/01/11 05:29:08;;;;;;;59.55;28.48;;;-0.30;99.90;;;;;;5061054;28;20032;-37
2022/01/11 05:31:35;;;;;;;66.75;30.30;;;-0.30;99.90;;;;;;5040694;28;20025;-36
2022/01/11 05:34:01;;;;;;;67.75;30.33;;;-0.30;99.90;;;;;;5054215;28;20053;-41
2022/01/11 05:36:27;;;;;;;60.95;30.48;;;-0.30;99.90;;;;;;5058117;28;20029;-37
2022/01/11 05:38:52;;;;;;;64.72;29.20;;;-0.30;99.90;;;;;;5041597;28;20029;-37
2022/01/11 05:41:18;;;;;;;60.72;29.15;;;-0.30;99.90;;;;;;5061705;28;20059;-36
2022/01/11 05:43:44;;;;;;;56.20;28.23;;;-0.20;99.90;;;;;;5041272;28;20118;-38
2022/01/11 05:46:09;;;;;;;66.88;29.35;;;-0.30;99.90;;;;;;5056559;28;20041;-37
2022/01/11 05:48:35;;;;;;;64.32;30.45;;;-0.30;99.90;;;;;;5042712;28;20037;-37
2022/01/11 05:51:01;;;;;;;66.15;29.98;;;-0.30;99.90;;;;;;5060444;28;20115;-37
2022/01/11 05:53:27;;;;;;;61.55;29.30;;;-0.20;99.90;;;;;;5062588;28;20033;-41
2022/01/11 05:55:53;;;;;;;67.35;30.13;;;-0.30;99.90;;;;;;5038312;28;20040;-37
2022/01/11 05:58:18;;;;;;;66.55;30.77;;;-0.30;99.90;;;;;;5020979;28;20036;-39
2022/01/11 06:00:44;;;;;;;65.72;29.65;;;-0.30;99.90;;;;;;5019154;28;20089;-38
2022/01/11 06:03:10;;;;;;;62.03;29.00;;;-0.30;99.90;;;;;;5023961;28;20022;-39
2022/01/11 06:05:38;;;;;;;60.38;30.50;;;-0.30;99.90;;;;;;5012578;28;20340;-39
2022/01/11 06:08:06;;;;;;;60.67;29.10;;;-0.30;99.90;;;;;;5023587;28;20090;-39
2022/01/11 06:10:32;;;;;;;55.40;27.35;;;-0.30;99.90;;;;;;5010600;28;20034;-37
2022/01/11 06:12:57;;;;;;;63.58;29.58;;;-0.30;99.90;;;;;;5021023;28;20018;-37
2022/01/11 06:15:23;;;;;;;60.38;28.88;;;-0.30;99.90;;;;;;5020059;28;20088;-36
2022/01/11 06:17:50;;;;;;;62.83;28.75;;;-0.30;99.90;;;;;;5020566;28;20033;-36
2022/01/11 06:20:15;;;;;;;58.90;27.52;;;-0.40;99.90;;;;;;5021487;28;20025;-36
2022/01/11 06:22:42;;;;;;;62.60;28.50;;;-0.40;99.90;;;;;;5019547;28;20098;-36
2022/01/11 06:25:08;;;;;;;72.47;38.03;;;-0.40;99.90;;;;;;5019318;28;20021;-36
2022/01/11 06:27:39;;;;;;;69.35;31.83;;;-0.30;99.90;;;;;;5014578;28;20449;-37
2022/01/11 06:30:07;;;;;;;62.58;29.55;;;-0.40;99.90;;;;;;5021006;28;20038;-37
2022/01/11 06:32:33;;;;;;;55.33;26.58;;;-0.40;99.90;;;;;;5020103;28;20065;-36
2022/01/11 06:34:59;;;;;;;56.88;27.38;;;-0.40;99.90;;;;;;5020684;28;20038;-37
2022/01/11 06:37:25;;;;;;;55.63;25.27;;;-0.50;99.90;;;;;;5021433;28;20050;-36
2022/01/11 06:39:51;;;;;;;54.95;26.05;;;-0.50;99.90;;;;;;5018880;28;20037;-37
2022/01/11 06:42:16;;;;;;;53.40;25.38;;;-0.50;99.90;;;;;;5018496;28;20025;-39
2022/01/11 06:44:43;;;;;;;52.83;26.42;;;-0.50;99.90;;;;;;5019593;28;20034;-37
2022/01/11 06:47:09;;;;;;;51.17;23.50;;;-0.50;99.90;;;;;;5028153;28;20089;-37
2022/01/11 06:49:35;;;;;;;53.65;24.77;;;-0.40;99.90;;;;;;5019027;28;20074;-37
2022/01/11 06:52:05;;;;;;;48.20;24.63;;;-0.40;99.90;;;;;;5018583;28;20033;-37
2022/01/11 06:54:30;;;;;;;53.72;26.85;;;-0.40;99.90;;;;;;5016070;28;20041;-36
2022/01/11 06:56:56;;;;;;;47.88;25.35;;;-0.40;99.90;;;;;;5036115;28;20132;-37
2022/01/11 06:59:23;;;;;;;47.92;24.00;;;-0.40;99.90;;;;;;5056774;28;20077;-37
2022/01/11 07:01:49;;;;;;;48.20;23.20;;;-0.40;99.90;;;;;;5049716;28;20067;-37
2022/01/11 07:04:15;;;;;;;54.70;24.95;;;-0.40;99.90;;;;;;5056791;28;20029;-37
2022/01/11 07:06:40;;;;;;;51.35;24.17;;;-0.40;99.90;;;;;;5056524;28;20025;-40
2022/01/11 07:09:06;;;;;;;46.83;23.90;;;-0.40;99.90;;;;;;5058535;28;20082;-37
2022/01/11 07:11:32;;;;;;;51.58;26.70;;;-0.40;99.90;;;;;;5061059;28;20035;-39
2022/01/11 07:13:57;;;;;;;44.05;21.83;;;-0.50;99.90;;;;;;5055181;28;20025;-36
2022/01/11 07:16:23;;;;;;;48.08;22.55;;;-0.50;99.90;;;;;;5059232;28;20589;-37
2022/01/11 07:18:49;;;;;;;49.28;22.83;;;-0.50;99.90;;;;;;5056543;28;20047;-38
2022/01/11 07:21:15;;;;;;;43.63;22.70;;;-0.50;99.90;;;;;;5060003;28;20104;-37
2022/01/11 07:23:42;;;;;;;45.13;21.95;;;-0.50;99.90;;;;;;5057256;28;20049;-37
2022/01/11 07:26:07;;;;;;;48.20;22.00;;;-0.50;99.90;;;;;;5063538;28;20024;-37
2022/01/11 07:28:34;;;;;;;51.63;24.05;;;-0.50;99.90;;;;;;5064153;28;20037;-43
2022/01/11 07:31:00;;;;;;;45.88;21.80;;;-0.50;99.90;;;;;;5057837;28;20039;-37
2022/01/11 07:33:26;;;;;;;44.55;22.48;;;-0.50;99.90;;;;;;5061441;28;20037;-37
2022/01/11 07:35:51;;;;;;;43.00;22.02;;;-0.50;99.90;;;;;;5058337;28;20047;-37
2022/01/11 07:38:17;;;;;;;47.58;22.38;;;-0.40;99.90;;;;;;5061031;28;20112;-37
2022/01/11 07:40:43;;;;;;;42.78;20.95;;;-0.40;99.90;;;;;;5041067;28;20036;-36
2022/01/11 07:43:08;;;;;;;44.40;22.23;;;-0.40;99.90;;;;;;5059368;28;20021;-37
2022/01/11 07:45:35;;;;;;;46.58;21.63;;;-0.40;99.90;;;;;;5039588;28;20025;-37
2022/01/11 07:48:01;;;;;;;43.47;20.77;;;-0.30;99.90;;;;;;5060520;28;20033;-37
2022/01/11 07:50:26;;;;;;;44.50;20.33;;;-0.30;99.90;;;;;;5061697;28;20543;-37
2022/01/11 07:52:52;;;;;;;41.38;21.73;;;-0.30;99.90;;;;;;5054128;28;20033;-37
2022/01/11 07:55:19;;;;;;;43.63;20.27;;;-0.30;99.90;;;;;;5060502;28;20021;-37
2022/01/11 07:57:45;;;;;;;41.90;20.17;;;-0.20;99.90;;;;;;5057384;28;20057;-37
2022/01/11 08:00:12;;;;;;;42.38;21.63;;;-0.20;99.90;;;;;;5062536;28;20025;-38
2022/01/11 08:02:38;;;;;;;39.42;20.05;;;-0.20;99.90;;;;;;5061068;28;20163;-37
2022/01/11 08:05:05;;;;;;;43.53;20.75;;;-0.10;99.90;;;;;;5030779;28;20111;-41
2022/01/11 08:07:32;;;;;;;41.35;19.50;;;-0.10;99.90;;;;;;5061602;28;20017;-37
2022/01/11 08:09:58;;;;;;;37.00;19.17;;;-0.10;99.90;;;;;;5058162;28;20036;-37
2022/01/11 08:12:23;;;;;;;34.80;19.33;;;-0.10;99.90;;;;;;5064242;28;20032;-38
2022/01/11 08:14:49;;;;;;;40.80;18.65;;;0.00;99.90;;;;;;5063204;28;20029;-40
2022/01/11 08:17:18;;;;;;;35.47;18.58;;;0.00;99.90;;;;;;5066558;28;20034;-37
2022/01/11 08:19:44;;;;;;;37.20;18.50;;;0.00;99.90;;;;;;5065930;28;20072;-37
2022/01/11 08:22:10;;;;;;;35.95;19.30;;;0.10;99.90;;;;;;5061238;28;20033;-37
2022/01/11 08:24:38;;;;;;;38.33;20.38;;;0.10;99.90;;;;;;5043732;28;20467;-37
2022/01/11 08:27:04;;;;;;;44.08;20.92;;;0.20;99.90;;;;;;5066551;28;20150;-37
2022/01/11 08:29:30;;;;;;;39.38;21.63;;;0.20;99.90;;;;;;5062251;28;20044;-37
2022/01/11 08:31:56;;;;;;;39.95;19.95;;;0.20;99.90;;;;;;5063327;28;20070;-37
2022/01/11 08:34:21;;;;;;;41.25;20.20;;;0.30;99.90;;;;;;5067168;28;20016;-39
2022/01/11 08:36:49;;;;;;;48.60;25.92;;;0.30;99.90;;;;;;5065056;28;20029;-39
2022/01/11 08:39:16;;;;;;;41.08;20.95;;;0.30;99.90;;;;;;5064533;28;20471;-39
2022/01/11 08:41:42;;;;;;;47.17;24.40;;;0.30;99.90;;;;;;5065388;28;20178;-38
2022/01/11 08:44:11;;;;;;;42.45;20.98;;;0.40;99.90;;;;;;5063054;28;20461;-37
2022/01/11 08:46:41;;;;;;;39.22;20.60;;;0.20;99.90;;;;;;5066140;28;20095;-41
2022/01/11 08:49:07;;;;;;;37.22;19.10;;;0.30;99.90;;;;;;5081404;28;20036;-39
2022/01/11 08:51:33;;;;;;;39.08;20.10;;;0.30;99.90;;;;;;5067156;28;20037;-36
2022/01/11 08:53:59;;;;;;;33.10;17.20;;;0.30;99.90;;;;;;5065961;28;20069;-35
2022/01/11 08:56:25;;;;;;;31.45;17.88;;;0.20;99.90;;;;;;5081405;28;20044;-36
2022/01/11 08:58:51;;;;;;;36.08;20.00;;;0.30;99.90;;;;;;5082950;28;20090;-36
2022/01/11 09:01:16;;;;;;;36.92;17.95;;;0.20;99.90;;;;;;5064688;28;20032;-36
2022/01/11 09:03:42;;;;;;;39.63;20.23;;;0.20;99.90;;;;;;5084895;28;20020;-36
2022/01/11 09:06:09;;;;;;;40.40;20.23;;;0.20;99.90;;;;;;5073257;28;20032;-37
2022/01/11 09:08:37;;;;;;;37.85;18.42;;;0.20;99.90;;;;;;5064028;28;20028;-37
2022/01/11 09:11:04;;;;;;;33.78;17.63;;;0.20;99.90;;;;;;5045666;28;20037;-36
2022/01/11 09:13:30;;;;;;;36.55;20.17;;;0.20;99.90;;;;;;5082490;28;20025;-37
2022/01/11 09:15:56;;;;;;;47.13;27.15;;;0.20;99.90;;;;;;5079708;28;20028;-38
2022/01/11 09:18:22;;;;;;;38.83;22.40;;;0.30;99.90;;;;;;5063111;28;20021;-40
2022/01/11 09:20:48;;;;;;;43.17;25.42;;;0.40;99.90;;;;;;5065259;28;20029;-38
2022/01/11 09:23:14;;;;;;;40.00;21.67;;;0.50;99.90;;;;;;5062096;28;20029;-37
2022/01/11 09:25:40;;;;;;;39.85;20.13;;;0.50;99.90;;;;;;5065589;28;20033;-37
2022/01/11 09:28:06;;;;;;;40.33;19.52;;;0.60;99.90;;;;;;5063256;28;20052;-37
2022/01/11 09:30:33;;;;;;;39.60;20.23;;;0.60;99.90;;;;;;5064342;28;20037;-37
2022/01/11 09:32:59;;;;;;;39.90;20.17;;;0.60;99.90;;;;;;5064400;28;20072;-37
2022/01/11 09:35:24;;;;;;;39.83;19.67;;;0.70;99.90;;;;;;5063381;28;20033;-36
2022/01/11 09:37:50;;;;;;;39.10;18.55;;;0.60;99.90;;;;;;5046502;28;20029;-37
2022/01/11 09:40:18;;;;;;;34.88;19.05;;;0.60;99.90;;;;;;5063161;28;20029;-37
2022/01/11 09:42:44;;;;;;;39.90;19.15;;;0.70;99.90;;;;;;5029709;28;20028;-36
2022/01/11 09:45:13;;;;;;;42.17;19.15;;;0.70;99.90;;;;;;5049391;28;20387;-40
2022/01/11 09:47:40;;;;;;;40.67;18.95;;;0.70;99.90;;;;;;5083187;28;20021;-36
2022/01/11 09:50:08;;;;;;;39.95;20.40;;;0.70;99.90;;;;;;5082146;28;20059;-36
2022/01/11 09:52:36;;;;;;;40.13;19.83;;;0.70;99.90;;;;;;5081412;28;20039;-37
2022/01/11 09:55:06;;;;;;;43.53;20.60;;;0.80;99.90;;;;;;5082450;28;20028;-36
2022/01/11 09:57:32;;;;;;;39.78;18.75;;;0.80;99.90;;;;;;5061402;28;20049;-37
2022/01/11 09:59:58;;;;;;;39.80;20.30;;;0.90;99.90;;;;;;5063791;28;20047;-36
2022/01/11 10:02:24;;;;;;;38.35;19.77;;;0.90;99.90;;;;;;5045798;28;20424;-36
2022/01/11 10:04:59;;;;;;;40.83;19.75;;;1.00;99.90;;;;;;5062902;28;20059;-37
2022/01/11 10:07:35;;;;;;;41.03;19.77;;;1.00;99.90;;;;;;5062786;28;20029;-39
2022/01/11 10:10:01;;;;;;;37.92;18.45;;;1.00;99.90;;;;;;5081530;28;20051;-36
2022/01/11 10:12:29;;;;;;;43.63;22.83;;;1.00;99.90;;;;;;5081973;28;20600;-36
2022/01/11 10:15:02;;;;;;;43.92;21.40;;;1.00;99.90;;;;;;5081703;28;20029;-36
2022/01/11 10:17:37;;;;;;;43.83;22.15;;;1.10;99.90;;;;;;5068049;28;20025;-37
2022/01/11 10:20:02;;;;;;;40.78;21.45;;;1.10;99.90;;;;;;5063417;28;20039;-36
2022/01/11 10:22:30;;;;;;;37.40;19.08;;;1.20;99.90;;;;;;5056432;28;20080;-37
2022/01/11 10:24:56;;;;;;;34.83;19.15;;;1.30;99.90;;;;;;5065341;28;20096;-36
2022/01/11 10:27:28;;;;;;;45.88;22.02;;;1.30;99.90;;;;;;5067930;28;20021;-40
2022/01/11 10:29:55;;;;;;;40.20;19.13;;;1.30;99.90;;;;;;5055776;28;20126;-36
2022/01/11 10:32:33;;;;;;;36.65;20.58;;;1.30;99.90;;;;;;5041923;28;20056;-36
2022/01/11 10:35:05;;;;;;;37.83;19.65;;;1.40;99.90;;;;;;5059205;28;20389;-37
2022/01/11 10:38:03;;;;;;;36.53;19.65;;;1.40;99.90;;;;;;5061801;28;20021;-38
2022/01/11 10:40:40;;;;;;;36.03;19.15;;;1.40;99.90;;;;;;5058029;28;20040;-37
2022/01/11 10:43:09;;;;;;;38.40;19.45;;;1.60;99.90;;;;;;5060514;28;20079;-39
2022/01/11 10:45:38;;;;;;;35.60;18.98;;;1.60;99.90;;;;;;5060223;28;20013;-37
2022/01/11 10:48:07;;;;;;;36.30;18.50;;;1.70;99.90;;;;;;5049613;28;20025;-37
2022/01/11 10:50:37;;;;;;;36.88;18.35;;;1.70;99.90;;;;;;5048702;28;20029;-37
2022/01/11 10:53:25;;;;;;;35.13;18.58;;;1.80;99.90;;;;;;5060199;28;20457;-37
2022/01/11 10:55:58;;;;;;;38.65;18.08;;;1.80;99.90;;;;;;5043280;28;20119;-38
2022/01/11 10:59:05;;;;;;;37.10;18.73;;;1.80;99.90;;;;;;5058829;28;20082;-37
2022/01/11 11:01:38;;;;;;;32.70;17.25;;;1.90;99.90;;;;;;5037805;28;20055;-38
2022/01/11 11:04:32;;;;;;;34.80;17.48;;;1.90;99.90;;;;;;5058575;28;20044;-37
2022/01/11 11:07:12;;;;;;;36.53;17.52;;;2.00;99.90;;;;;;5054100;28;20029;-37
2022/01/11 11:09:47;;;;;;;35.63;17.63;;;2.00;99.90;;;;;;5057626;28;20096;-38
2022/01/11 11:12:23;;;;;;;35.70;18.67;;;2.00;99.90;;;;;;5061166;28;20017;-38
2022/01/11 11:14:55;;;;;;;33.80;16.42;;;2.10;99.90;;;;;;5073214;28;20025;-37
2022/01/11 11:17:35;;;;;;;37.97;17.48;;;2.10;99.90;;;;;;5059145;28;20550;-38
2022/01/11 11:20:08;;;;;;;33.53;16.33;;;2.00;99.90;;;;;;5042260;28;20044;-38
2022/01/11 11:22:34;;;;;;;31.85;16.48;;;1.90;99.90;;;;;;5057249;28;20025;-39
2022/01/11 11:25:02;;;;;;;30.67;15.95;;;1.90;99.90;;;;;;5055263;28;20061;-38
2022/01/11 11:27:30;;;;;;;35.95;16.83;;;1.90;99.90;;;;;;5066465;28;20070;-38
2022/01/11 11:29:57;;;;;;;34.28;17.20;;;1.80;99.90;;;;;;5042410;28;20497;-39
2022/01/11 11:32:25;;;;;;;34.85;16.25;;;1.80;99.90;;;;;;5040538;28;20028;-37
2022/01/11 11:35:36;;;;;;;32.05;15.95;;;1.80;99.90;;;;;;5043340;28;20064;-38
2022/01/11 11:41:27;;;;;;;;;;;1.80;99.90;;;;;;5033104;22;20175;-82
2022/01/11 11:44:11;;;;;;;36.45;17.63;;;2.00;99.90;;;;;;5041011;28;19920;-82
2022/01/11 11:46:53;;;;;;;34.58;17.17;;;2.00;99.90;;;;;;5041628;28;20389;-81
2022/01/11 11:49:51;;;;;;;43.60;21.27;;;2.20;99.90;;;;;;5041884;28;20051;-81
2022/01/11 11:52:16;;;;;;;43.65;21.50;;;2.30;99.90;;;;;;5039769;28;20432;-83
2022/01/11 11:54:57;;;;;;;51.13;24.60;;;2.50;99.90;;;;;;5040966;28;20030;-81
2022/01/11 11:57:26;;;;;;;37.75;17.55;;;2.60;99.90;;;;;;5036992;28;20030;-82
2022/01/11 11:59:58;;;;;;;36.42;18.05;;;2.80;99.90;;;;;;5040937;28;20022;-82
2022/01/11 12:03:00;;;;;;;36.45;18.85;;;3.00;99.90;;;;;;5050343;28;20021;-82
2022/01/11 12:05:45;;;;;;;33.92;16.88;;;3.20;99.90;;;;;;5000598;28;20037;-83
2022/01/11 12:08:37;;;;;;;37.65;18.15;;;3.40;99.90;;;;;;5039371;28;20049;-83
2022/01/11 12:11:08;;;;;;;38.15;17.52;;;3.70;99.90;;;;;;5025219;28;20042;-83
2022/01/11 12:13:51;;;;;;;40.78;19.90;;;4.00;99.90;;;;;;5024084;28;20026;-82
2022/01/11 12:16:26;;;;;;;;;;;4.30;99.90;;;;;;5031621;28;20029;-83
2022/01/11 12:18:53;;;;;;;34.95;16.48;;;4.30;99.90;;;;;;5039987;28;19920;-82
2022/01/11 12:21:22;;;;;;;41.60;18.42;;;4.50;99.90;;;;;;5037300;28;20022;-83
2022/01/11 12:23:53;;;;;;;32.50;14.98;;;4.40;99.90;;;;;;5024710;28;20038;-83
2022/01/11 12:26:22;;;;;;;31.70;16.52;;;4.30;99.90;;;;;;5037365;28;20049;-83
2022/01/11 12:29:03;;;;;;;30.40;14.90;;;4.40;99.90;;;;;;5044480;28;20030;-82
2022/01/11 12:31:35;;;;;;;28.73;14.97;;;4.40;99.90;;;;;;5040203;28;20030;-83
2022/01/11 12:34:02;;;;;;;29.00;14.55;;;4.50;99.90;;;;;;5043281;28;20546;-82
2022/01/11 12:36:57;;;;;;;31.23;14.98;;;4.50;99.90;;;;;;5042200;28;20021;-82
2022/01/11 12:39:25;;;;;;;31.67;15.93;;;4.60;99.90;;;;;;5044050;28;20469;-83
2022/01/11 12:41:51;;;;;;;30.45;15.73;;;4.60;99.90;;;;;;5043687;28;20048;-82
2022/01/11 12:45:35;;;;;;;30.00;14.60;;;4.70;99.90;;;;;;5033327;28;20041;-82